QFA630 VAAH-UTAA
Flight info
| Callsign | QFA630 |
|---|---|
| Flight time | N/A |
| Altitude | 36000 |
| Route | SASRO1A SASRO G208 KE B210 NH J115 IDEBA B466 SERKA UL333 GULSO DCT AHR DCT NINOP A125 KEMOR KEM29A |
| Aircraft | B738/M-SDE2E3FGHIRWXY/LB1 |
Departure
| Time | 2026-05-08 06:09 |
|---|---|
| Airport | Sardar Vallabh Patel International Airport (VAAH) |
Arrival
| Time | N/A |
|---|---|
| Airport | Ashgabat International Airport (UTAA) |
| Time | Latitude | Longitude | Altitude | Speed | Heading |
|---|---|---|---|---|---|
| 2026-05-08 05:51 | 23.07443 | 72.62545 | 191 ft | 0 kts | 311° |
| 2026-05-08 06:01 | 23.07442 | 72.62546 | 190 ft | 1 kts | 311° |
| 2026-05-08 06:02 | 23.07426 | 72.62561 | 206 ft | 3 kts | 336° |
| 2026-05-08 06:02 | 23.07409 | 72.62566 | 197 ft | 3 kts | 13° |
| 2026-05-08 06:02 | 23.07397 | 72.62561 | 202 ft | 3 kts | 32° |
| 2026-05-08 06:02 | 23.07382 | 72.62548 | 204 ft | 2 kts | 44° |
| 2026-05-08 06:03 | 23.07378 | 72.62545 | 204 ft | 0 kts | 45° |
| 2026-05-08 06:04 | 23.07381 | 72.62549 | 202 ft | 3 kts | 52° |
| 2026-05-08 06:05 | 23.07402 | 72.62611 | 200 ft | 14 kts | 52° |
| 2026-05-08 06:05 | 23.07493 | 72.62711 | 201 ft | 21 kts | 44° |
| 2026-05-08 06:05 | 23.07487 | 72.62839 | 198 ft | 20 kts | 133° |
| 2026-05-08 06:05 | 23.07503 | 72.62961 | 191 ft | 18 kts | 45° |
| 2026-05-08 06:06 | 23.07591 | 72.63056 | 192 ft | 17 kts | 45° |
| 2026-05-08 06:06 | 23.07663 | 72.63156 | 199 ft | 17 kts | 70° |
| 2026-05-08 06:06 | 23.07697 | 72.63274 | 197 ft | 16 kts | 73° |
| 2026-05-08 06:06 | 23.07727 | 72.63392 | 199 ft | 18 kts | 75° |
| 2026-05-08 06:07 | 23.07800 | 72.63526 | 194 ft | 23 kts | 46° |
| 2026-05-08 06:07 | 23.07916 | 72.63657 | 197 ft | 24 kts | 43° |
| 2026-05-08 06:07 | 23.08033 | 72.63778 | 204 ft | 23 kts | 44° |
| 2026-05-08 06:07 | 23.08143 | 72.63895 | 209 ft | 22 kts | 44° |
| 2026-05-08 06:08 | 23.08251 | 72.64010 | 203 ft | 21 kts | 48° |
| 2026-05-08 06:08 | 23.08320 | 72.64135 | 201 ft | 11 kts | 14° |
| 2026-05-08 06:08 | 23.08323 | 72.64089 | 209 ft | 1 kts | 226° |
| 2026-05-08 06:09 | 23.08240 | 72.63999 | 205 ft | 51 kts | 224° |
| 2026-05-08 06:09 | 23.07803 | 72.63533 | 201 ft | 124 kts | 224° |
| 2026-05-08 06:09 | 23.07075 | 72.62747 | 486 ft | 158 kts | 225° |
| 2026-05-08 06:09 | 23.06289 | 72.61844 | 1146 ft | 164 kts | 232° |
| 2026-05-08 06:10 | 23.05691 | 72.60764 | 1931 ft | 166 kts | 251° |
| 2026-05-08 06:10 | 23.05397 | 72.59479 | 2366 ft | 194 kts | 264° |
| 2026-05-08 06:10 | 23.05430 | 72.57907 | 2637 ft | 220 kts | 279° |
| 2026-05-08 06:10 | 23.05972 | 72.56268 | 2962 ft | 243 kts | 300° |
| 2026-05-08 06:11 | 23.07133 | 72.54797 | 3327 ft | 266 kts | 318° |
| 2026-05-08 06:11 | 23.08529 | 72.53470 | 4031 ft | 273 kts | 316° |
| 2026-05-08 06:11 | 23.09938 | 72.52048 | 4816 ft | 278 kts | 315° |
| 2026-05-08 06:11 | 23.11344 | 72.50582 | 5654 ft | 280 kts | 315° |
| 2026-05-08 06:12 | 23.12731 | 72.49113 | 6470 ft | 283 kts | 314° |
| 2026-05-08 06:12 | 23.14102 | 72.47553 | 7231 ft | 286 kts | 308° |
| 2026-05-08 06:12 | 23.15299 | 72.45802 | 7982 ft | 290 kts | 304° |
| 2026-05-08 06:12 | 23.16442 | 72.43974 | 8756 ft | 294 kts | 303° |
| 2026-05-08 06:13 | 23.17587 | 72.42111 | 9531 ft | 298 kts | 304° |
| 2026-05-08 06:13 | 23.18743 | 72.40238 | 10171 ft | 306 kts | 304° |
| 2026-05-08 06:13 | 23.19980 | 72.38253 | 10410 ft | 328 kts | 304° |
| 2026-05-08 06:13 | 23.21313 | 72.36129 | 10571 ft | 351 kts | 304° |
| 2026-05-08 06:14 | 23.22737 | 72.33872 | 10709 ft | 372 kts | 305° |
| 2026-05-08 06:14 | 23.24242 | 72.31498 | 10870 ft | 389 kts | 305° |
| 2026-05-08 06:14 | 23.25804 | 72.29040 | 11223 ft | 399 kts | 305° |
| 2026-05-08 06:14 | 23.27381 | 72.26563 | 11663 ft | 404 kts | 305° |
| 2026-05-08 06:15 | 23.28991 | 72.24035 | 12210 ft | 406 kts | 305° |
| 2026-05-08 06:15 | 23.30603 | 72.21504 | 12780 ft | 408 kts | 305° |
| 2026-05-08 06:15 | 23.32223 | 72.18961 | 13342 ft | 410 kts | 305° |
| 2026-05-08 06:15 | 23.33858 | 72.16393 | 13846 ft | 413 kts | 305° |
| 2026-05-08 06:16 | 23.35502 | 72.13811 | 14356 ft | 414 kts | 305° |
| 2026-05-08 06:16 | 23.37144 | 72.11229 | 14872 ft | 415 kts | 305° |
| 2026-05-08 06:16 | 23.38774 | 72.08665 | 15375 ft | 416 kts | 305° |
| 2026-05-08 06:16 | 23.40425 | 72.06066 | 15870 ft | 417 kts | 305° |
| 2026-05-08 06:17 | 23.43746 | 72.00837 | 16742 ft | 422 kts | 305° |
| 2026-05-08 06:17 | 23.45421 | 71.98195 | 17190 ft | 424 kts | 305° |
| 2026-05-08 06:17 | 23.47101 | 71.95546 | 17642 ft | 426 kts | 304° |
| 2026-05-08 06:18 | 23.48772 | 71.92910 | 18075 ft | 427 kts | 304° |
| 2026-05-08 06:18 | 23.50467 | 71.90235 | 18455 ft | 429 kts | 304° |
| 2026-05-08 06:18 | 23.52163 | 71.87556 | 18838 ft | 430 kts | 305° |
| 2026-05-08 06:18 | 23.53863 | 71.84870 | 19208 ft | 431 kts | 305° |
| 2026-05-08 06:19 | 23.55551 | 71.82202 | 19568 ft | 432 kts | 305° |
| 2026-05-08 06:19 | 23.57265 | 71.79490 | 19925 ft | 433 kts | 305° |
| 2026-05-08 06:19 | 23.58984 | 71.76769 | 20267 ft | 434 kts | 305° |
| 2026-05-08 06:19 | 23.60687 | 71.74073 | 20592 ft | 436 kts | 305° |
| 2026-05-08 06:20 | 23.62413 | 71.71338 | 20914 ft | 437 kts | 305° |
| 2026-05-08 06:20 | 23.64127 | 71.68621 | 21214 ft | 438 kts | 306° |
| 2026-05-08 06:20 | 23.65873 | 71.65852 | 21528 ft | 440 kts | 306° |